createdAt,value
2019-06-10T00:01:36.618Z,2.53
2019-06-10T00:04:08.717Z,2.63
2019-06-10T00:06:37.476Z,2.77
2019-06-10T00:09:08.607Z,2.70
2019-06-10T00:11:40.487Z,2.50
2019-06-10T00:14:10.726Z,2.67
2019-06-10T00:16:41.570Z,2.80
2019-06-10T00:19:12.796Z,3.03
2019-06-10T00:21:42.495Z,2.87
2019-06-10T00:24:11.927Z,2.73
2019-06-10T00:26:41.450Z,2.50
2019-06-10T00:29:11.906Z,2.63
2019-06-10T00:31:41.834Z,2.40
2019-06-10T00:34:12.329Z,3.03
2019-06-10T00:36:42.049Z,2.80
2019-06-10T00:39:13.462Z,2.50
2019-06-10T00:41:42.946Z,3.30
2019-06-10T00:44:12.878Z,3.40
2019-06-10T00:46:42.536Z,2.93
2019-06-10T00:49:14.463Z,3.20
2019-06-10T00:51:42.983Z,2.90
2019-06-10T00:54:15.076Z,3.20
2019-06-10T00:56:43.703Z,2.97
2019-06-10T00:59:15.255Z,3.17
2019-06-10T01:01:44.540Z,2.83
2019-06-10T01:04:16.231Z,3.20
2019-06-10T01:06:44.957Z,3.13
2019-06-10T01:09:14.927Z,3.00
2019-06-10T01:11:44.294Z,3.27
2019-06-10T01:14:15.141Z,3.47
2019-06-10T01:16:44.948Z,3.10
2019-06-10T01:19:15.768Z,2.97
2019-06-10T01:21:45.449Z,2.93
2019-06-10T01:24:14.913Z,3.27
2019-06-10T01:26:44.258Z,3.30
2019-06-10T01:29:15.582Z,3.30
2019-06-10T01:31:45.091Z,3.20
2019-06-10T01:34:15.153Z,3.40
2019-06-10T01:36:44.631Z,2.83
2019-06-10T01:39:16.119Z,3.03
2019-06-10T01:41:45.207Z,3.40
2019-06-10T01:44:16.057Z,2.97
2019-06-10T01:46:45.945Z,2.83
2019-06-10T01:49:16.788Z,3.20
2019-06-10T01:51:46.282Z,3.37
2019-06-10T01:54:17.105Z,3.70
2019-06-10T01:56:46.973Z,3.20
2019-06-10T01:59:17.001Z,3.60
2019-06-10T02:02:03.482Z,3.50
2019-06-10T02:04:32.947Z,3.30
2019-06-10T02:07:02.331Z,3.43
2019-06-10T02:09:31.782Z,3.00
2019-06-10T02:12:02.164Z,3.23
2019-06-10T02:14:32.062Z,3.40
2019-06-10T02:17:01.527Z,3.23
2019-06-10T02:19:31.424Z,3.70
2019-06-10T02:22:01.398Z,3.67
2019-06-10T02:24:31.689Z,3.90
2019-06-10T02:27:01.283Z,3.93
2019-06-10T02:29:31.007Z,4.43
2019-06-10T02:32:04.794Z,4.53
2019-06-10T02:34:36.640Z,4.60
2019-06-10T02:37:04.772Z,4.37
2019-06-10T02:39:38.751Z,3.67
2019-06-10T02:42:29.856Z,4.10
2019-06-10T02:44:54.050Z,3.63
2019-06-10T02:47:31.710Z,3.67
2019-06-10T02:50:02.555Z,3.50
2019-06-10T02:52:32.692Z,3.13
2019-06-10T02:54:56.738Z,3.20
2019-06-10T02:57:34.785Z,3.40
2019-06-10T02:59:57.486Z,3.40
2019-06-10T03:02:31.536Z,3.67
2019-06-10T03:04:57.960Z,3.20
2019-06-10T03:07:30.979Z,3.67
2019-06-10T03:09:58.483Z,3.40
2019-06-10T03:12:28.223Z,3.67
2019-06-10T03:14:57.625Z,3.30
2019-06-10T03:17:28.243Z,3.60
2019-06-10T03:19:57.791Z,3.13
2019-06-10T03:22:28.364Z,3.47
2019-06-10T03:24:58.086Z,3.50
2019-06-10T03:27:27.975Z,3.53
2019-06-10T03:29:57.376Z,2.87
2019-06-10T03:32:33.301Z,3.37
2019-06-10T03:34:57.740Z,3.20
2019-06-10T03:37:27.716Z,3.13
2019-06-10T03:39:57.322Z,3.40
2019-06-10T03:42:28.166Z,3.33
2019-06-10T03:44:57.628Z,3.10
2019-06-10T03:47:28.661Z,3.40
2019-06-10T03:49:58.497Z,3.00
2019-06-10T03:52:28.600Z,2.87
2019-06-10T03:54:58.061Z,2.87
2019-06-10T03:57:28.712Z,3.23
2019-06-10T03:59:58.276Z,3.00
2019-06-10T04:02:28.501Z,3.03
2019-06-10T04:04:58.022Z,2.87
2019-06-10T04:07:30.634Z,2.70
2019-06-10T04:09:58.332Z,2.80
2019-06-10T04:12:29.055Z,3.00
2019-06-10T04:14:58.517Z,2.53
2019-06-10T04:17:28.769Z,2.40
2019-06-10T04:20:09.214Z,2.87
2019-06-10T04:22:29.521Z,2.90
2019-06-10T04:24:58.992Z,2.70
2019-06-10T04:27:28.527Z,2.60
2019-06-10T04:29:58.075Z,2.57
2019-06-10T04:32:27.776Z,2.40
2019-06-10T04:34:58.430Z,2.70
2019-06-10T04:37:29.363Z,2.50
2019-06-10T04:39:59.261Z,2.77
2019-06-10T04:42:29.080Z,2.93
2019-06-10T04:44:58.388Z,2.67
2019-06-10T04:47:28.393Z,2.80
2019-06-10T04:49:58.976Z,2.67
2019-06-10T04:52:29.652Z,2.53
2019-06-10T04:55:02.240Z,2.80
2019-06-10T04:57:32.706Z,2.83
2019-06-10T05:00:04.107Z,2.77
2019-06-10T05:02:33.236Z,2.47
2019-06-10T05:05:03.116Z,2.70
2019-06-10T05:07:36.823Z,2.90
2019-06-10T05:10:05.003Z,3.00
2019-06-10T05:12:34.312Z,2.80
2019-06-10T05:15:03.784Z,2.90
2019-06-10T05:17:34.280Z,2.80
2019-06-10T05:20:04.155Z,2.80
2019-06-10T05:22:33.487Z,3.00
2019-06-10T05:25:02.873Z,2.73
2019-06-10T05:27:33.058Z,2.80
2019-06-10T05:30:02.943Z,3.00
2019-06-10T05:32:33.454Z,3.13
2019-06-10T05:35:03.610Z,3.00
2019-06-10T05:37:33.900Z,2.63
2019-06-10T05:40:04.997Z,3.00
2019-06-10T05:42:36.152Z,2.70
2019-06-10T05:45:07.372Z,2.80
2019-06-10T05:47:36.954Z,2.50
2019-06-10T05:50:07.098Z,3.10
2019-06-10T05:52:36.594Z,3.03
2019-06-10T05:55:06.372Z,3.00
2019-06-10T05:57:35.705Z,3.10
2019-06-10T06:00:11.406Z,3.50
2019-06-10T06:02:37.942Z,2.80
2019-06-10T06:05:07.491Z,3.43
2019-06-10T06:07:37.596Z,2.80
2019-06-10T06:10:07.913Z,3.20
2019-06-10T06:12:37.955Z,3.20
2019-06-10T06:15:08.832Z,4.20
2019-06-10T06:17:38.623Z,3.63
2019-06-10T06:20:08.807Z,3.40
2019-06-10T06:22:38.140Z,3.57
2019-06-10T06:25:08.422Z,3.37
2019-06-10T06:27:38.250Z,3.33
2019-06-10T06:30:13.723Z,3.00
2019-06-10T06:32:39.643Z,3.10
2019-06-10T06:35:09.315Z,3.20
2019-06-10T06:37:39.731Z,3.10
2019-06-10T06:40:09.988Z,3.00
2019-06-10T06:42:39.350Z,3.03
2019-06-10T06:45:12.052Z,2.90
2019-06-10T06:47:43.512Z,2.93
2019-06-10T06:50:13.057Z,2.90
2019-06-10T06:53:15.541Z,3.57
2019-06-10T06:55:14.122Z,2.73
2019-06-10T06:57:43.578Z,3.00
2019-06-10T07:00:35.339Z,2.40
2019-06-10T07:02:45.021Z,2.40
2019-06-10T07:05:15.716Z,2.73
2019-06-10T07:07:45.257Z,2.80
2019-06-10T07:10:15.109Z,2.60
2019-06-10T07:12:45.518Z,2.30
2019-06-10T07:15:15.644Z,2.80
2019-06-10T07:17:46.167Z,2.30
2019-06-10T07:20:15.951Z,2.43
2019-06-10T07:22:46.621Z,3.00
2019-06-10T07:25:16.558Z,2.40
2019-06-10T07:27:47.032Z,2.20
2019-06-10T07:30:16.661Z,2.17
2019-06-10T07:32:47.418Z,2.37
2019-06-10T07:35:17.108Z,2.60
2019-06-10T07:37:46.360Z,2.30
2019-06-10T07:40:17.506Z,2.33
2019-06-10T07:42:47.054Z,2.67
2019-06-10T07:45:17.058Z,2.50
2019-06-10T07:47:46.574Z,2.50
2019-06-10T07:50:16.505Z,2.30
2019-06-10T07:52:46.838Z,2.57
2019-06-10T07:55:17.016Z,2.40
2019-06-10T07:57:46.631Z,2.27
2019-06-10T08:00:18.953Z,2.20
2019-06-10T08:02:48.499Z,2.20
2019-06-10T08:05:18.806Z,2.20
2019-06-10T08:07:49.032Z,2.30
2019-06-10T08:10:18.597Z,2.10
2019-06-10T08:12:48.399Z,2.00
2019-06-10T08:15:18.364Z,2.20
2019-06-10T08:17:48.277Z,2.40
2019-06-10T08:20:37.132Z,2.67
2019-06-10T08:23:06.559Z,2.00
2019-06-10T08:25:36.799Z,2.23
2019-06-10T08:28:06.457Z,2.20
2019-06-10T08:30:35.988Z,2.07
2019-06-10T08:33:05.721Z,2.30
2019-06-10T08:35:44.138Z,2.50
2019-06-10T08:38:06.582Z,2.20
2019-06-10T08:40:36.376Z,1.90
2019-06-10T08:43:06.197Z,2.33
2019-06-10T08:45:36.885Z,2.70
2019-06-10T08:48:06.627Z,2.37
2019-06-10T08:50:37.632Z,3.00
2019-06-10T08:53:14.626Z,2.70
2019-06-10T08:55:39.677Z,2.43
2019-06-10T08:58:09.280Z,2.10
2019-06-10T09:00:40.432Z,2.70
2019-06-10T09:03:12.645Z,2.53
2019-06-10T09:05:46.065Z,2.53
2019-06-10T09:08:13.163Z,2.30
2019-06-10T09:10:47.449Z,2.70
2019-06-10T09:13:14.237Z,2.70
2019-06-10T09:15:46.732Z,2.40
2019-06-10T09:18:19.647Z,2.03
2019-06-10T09:20:52.440Z,2.13
2019-06-10T09:23:22.574Z,2.17
2019-06-10T09:25:53.905Z,2.43
2019-06-10T09:28:22.954Z,1.80
2019-06-10T09:30:57.889Z,2.37
2019-06-10T09:33:23.307Z,2.30
2019-06-10T09:35:55.027Z,2.00
2019-06-10T09:38:24.142Z,1.90
2019-06-10T09:41:01.406Z,2.00
2019-06-10T09:43:25.982Z,2.30
2019-06-10T09:45:56.642Z,2.43
2019-06-10T09:48:26.490Z,2.20
2019-06-10T09:50:59.177Z,2.33
2019-06-10T09:53:38.953Z,2.67
2019-06-10T09:56:03.826Z,2.90
2019-06-10T09:58:33.127Z,4.13
2019-06-10T10:01:03.578Z,2.17
2019-06-10T10:03:33.391Z,2.50
2019-06-10T10:06:11.708Z,2.20
2019-06-10T10:08:34.879Z,2.43
2019-06-10T10:11:04.439Z,2.57
2019-06-10T10:13:35.343Z,2.20
2019-06-10T10:16:05.773Z,2.60
2019-06-10T10:18:35.333Z,2.57
2019-06-10T10:21:05.026Z,2.40
2019-06-10T10:23:50.198Z,2.53
2019-06-10T10:26:05.872Z,2.40
2019-06-10T10:28:35.470Z,2.60
2019-06-10T10:31:05.152Z,2.10
2019-06-10T10:33:34.551Z,2.07
2019-06-10T10:36:04.157Z,2.10
2019-06-10T10:38:34.834Z,1.70
2019-06-10T10:41:05.197Z,2.00
2019-06-10T10:43:37.655Z,2.20
2019-06-10T10:46:06.246Z,2.00
2019-06-10T10:48:35.907Z,1.83
2019-06-10T10:51:05.828Z,1.80
2019-06-10T10:53:35.353Z,1.80
2019-06-10T10:56:05.115Z,2.03
2019-06-10T10:58:34.523Z,2.27
2019-06-10T11:01:04.911Z,2.07
2019-06-10T11:03:34.846Z,2.27
2019-06-10T11:06:04.953Z,1.53
2019-06-10T11:08:34.431Z,1.83
2019-06-10T11:11:05.750Z,1.90
2019-06-10T11:13:37.346Z,1.90
2019-06-10T11:16:07.088Z,2.37
2019-06-10T11:18:36.569Z,2.20
2019-06-10T11:21:06.089Z,2.00
2019-06-10T11:23:35.583Z,1.73
2019-06-10T11:26:06.931Z,1.93
2019-06-10T11:28:36.651Z,2.10
2019-06-10T11:31:06.157Z,1.50
2019-06-10T11:33:35.794Z,2.90
2019-06-10T11:36:05.409Z,2.10
2019-06-10T11:38:35.040Z,1.57
2019-06-10T11:41:04.738Z,2.00
2019-06-10T11:43:34.189Z,1.90
2019-06-10T11:46:07.404Z,2.00
2019-06-10T11:48:35.906Z,1.97
2019-06-10T11:51:05.817Z,1.97
2019-06-10T11:53:36.022Z,2.30
2019-06-10T11:56:06.093Z,2.20
2019-06-10T11:58:36.017Z,2.47
2019-06-10T12:01:06.119Z,2.00
2019-06-10T12:03:36.051Z,1.90
2019-06-10T12:06:05.959Z,2.13
2019-06-10T12:08:35.991Z,1.77
2019-06-10T12:11:05.755Z,1.90
2019-06-10T12:13:35.431Z,1.80
2019-06-10T12:18:36.417Z,1.77
2019-06-10T12:21:05.981Z,1.70
2019-06-10T12:23:35.635Z,1.57
2019-06-10T12:26:05.470Z,2.00
2019-06-10T12:28:35.601Z,1.57
2019-06-10T12:31:07.036Z,2.10
2019-06-10T12:33:36.599Z,1.80
2019-06-10T12:36:07.399Z,1.80
2019-06-10T12:38:37.495Z,2.03
2019-06-10T12:41:10.079Z,1.70
2019-06-10T12:43:38.509Z,2.00
2019-06-10T12:46:08.536Z,2.07
2019-06-10T12:48:38.254Z,1.90
2019-06-10T12:51:09.550Z,2.00
2019-06-10T12:53:39.375Z,2.00
2019-06-10T12:56:11.151Z,2.00
2019-06-10T12:58:42.862Z,2.10
2019-06-10T13:01:11.623Z,2.20
2019-06-10T13:03:43.700Z,2.37
2019-06-10T13:06:13.143Z,2.10
2019-06-10T13:08:43.867Z,1.90
2019-06-10T13:11:15.044Z,1.70
2019-06-10T13:13:45.340Z,2.30
2019-06-10T13:16:15.013Z,1.87
2019-06-10T13:18:44.595Z,1.90
2019-06-10T13:21:17.543Z,2.10
2019-06-10T13:23:45.491Z,2.03
2019-06-10T13:26:16.637Z,2.30
2019-06-10T13:28:46.088Z,2.17
2019-06-10T13:31:15.644Z,1.93
2019-06-10T13:33:45.744Z,1.80
2019-06-10T13:36:15.649Z,2.00
2019-06-10T13:38:45.379Z,2.10
2019-06-10T13:41:15.008Z,2.07
2019-06-10T13:43:44.815Z,2.20
2019-06-10T13:46:14.268Z,2.00
2019-06-10T13:48:44.579Z,2.03
2019-06-10T13:51:15.699Z,1.80
2019-06-10T13:53:46.361Z,2.57
2019-06-10T13:56:38.154Z,1.97
2019-06-10T13:58:48.181Z,2.07
2019-06-10T14:01:21.827Z,2.10
2019-06-10T14:03:49.489Z,2.60
2019-06-10T14:06:37.432Z,2.20
2019-06-10T14:08:52.193Z,2.50
2019-06-10T14:11:26.150Z,2.10
2019-06-10T14:13:53.294Z,2.10
2019-06-10T14:16:23.639Z,2.27
2019-06-10T14:18:54.140Z,2.00
2019-06-10T14:21:24.031Z,2.07
2019-06-10T14:23:53.815Z,2.13
2019-06-10T14:26:36.759Z,2.10
2019-06-10T14:28:55.038Z,2.03
2019-06-10T14:31:39.137Z,1.90
2019-06-10T14:33:56.074Z,1.87
2019-06-10T14:36:25.906Z,1.83
2019-06-10T14:38:55.595Z,1.90
2019-06-10T14:41:25.990Z,1.57
2019-06-10T14:43:56.020Z,1.90
2019-06-10T14:46:25.666Z,2.10
2019-06-10T14:48:55.510Z,2.67
2019-06-10T14:51:25.011Z,1.90
2019-06-10T14:53:54.506Z,1.80
2019-06-10T14:56:24.249Z,2.00
2019-06-10T14:58:54.568Z,2.10
2019-06-10T15:01:25.959Z,2.00
2019-06-10T15:03:55.328Z,1.80
2019-06-10T15:06:25.230Z,1.53
2019-06-10T15:08:54.862Z,2.03
2019-06-10T15:11:27.593Z,2.43
2019-06-10T15:13:56.051Z,2.87
2019-06-10T15:16:25.994Z,2.53
2019-06-10T15:19:10.960Z,2.57
2019-06-10T15:21:27.189Z,2.70
2019-06-10T15:23:56.739Z,2.13
2019-06-10T15:26:26.183Z,2.20
2019-06-10T15:28:56.224Z,2.00
2019-06-10T15:31:25.851Z,2.27
2019-06-10T15:33:55.733Z,2.13
2019-06-10T15:36:25.242Z,2.13
2019-06-10T15:38:54.943Z,2.10
2019-06-10T15:41:24.883Z,2.03
2019-06-10T15:43:54.564Z,2.17
2019-06-10T15:46:24.844Z,2.50
2019-06-10T15:48:54.472Z,2.60
2019-06-10T15:51:26.014Z,2.10
2019-06-10T15:53:55.750Z,2.30
2019-06-10T15:56:37.587Z,2.30
2019-06-10T15:58:56.963Z,4.40
2019-06-10T16:01:27.556Z,3.57
2019-06-10T16:03:57.290Z,3.43
2019-06-10T16:06:27.304Z,2.80
2019-06-10T16:08:57.148Z,2.40
2019-06-10T16:11:27.300Z,2.77
2019-06-10T16:13:57.030Z,3.00
2019-06-10T16:16:26.746Z,2.90
2019-06-10T16:18:56.651Z,2.50
2019-06-10T16:21:26.649Z,2.70
2019-06-10T16:23:56.091Z,2.77
2019-06-10T16:26:26.968Z,2.83
2019-06-10T16:28:56.605Z,2.70
2019-06-10T16:31:27.547Z,2.60
2019-06-10T16:33:57.427Z,3.03
2019-06-10T16:36:28.008Z,2.90
2019-06-10T16:38:58.117Z,2.87
2019-06-10T16:41:28.205Z,3.10
2019-06-10T16:43:58.002Z,2.77
2019-06-10T16:46:28.973Z,3.20
2019-06-10T16:48:59.101Z,3.10
2019-06-10T16:51:29.906Z,3.27
2019-06-10T16:53:59.469Z,3.37
2019-06-10T16:56:30.936Z,2.33
2019-06-10T16:59:02.969Z,3.37
2019-06-10T17:01:33.270Z,3.70
2019-06-10T17:04:03.406Z,3.53
2019-06-10T17:06:33.160Z,3.80
2019-06-10T17:09:02.958Z,3.17
2019-06-10T17:11:32.531Z,3.47
2019-06-10T17:14:03.100Z,3.77
2019-06-10T17:16:32.848Z,4.20
2019-06-10T17:19:02.564Z,4.37
2019-06-10T17:21:34.709Z,4.00
2019-06-10T17:24:04.248Z,4.33
2019-06-10T17:26:37.925Z,4.43
2019-06-10T17:29:05.430Z,4.27
2019-06-10T17:31:35.387Z,4.77
2019-06-10T17:34:05.288Z,4.50
2019-06-10T17:36:35.595Z,4.87
2019-06-10T17:39:08.026Z,4.40
2019-06-10T17:41:38.278Z,4.57
2019-06-10T17:44:08.153Z,4.37
2019-06-10T17:46:37.901Z,4.67
2019-06-10T17:49:07.675Z,4.60
2019-06-10T17:51:37.220Z,5.33
2019-06-10T17:54:06.877Z,4.97
2019-06-10T17:56:36.658Z,4.50
2019-06-10T17:59:06.803Z,4.83
2019-06-10T18:01:36.457Z,5.10
2019-06-10T18:04:06.449Z,5.20
2019-06-10T18:06:36.607Z,5.63
2019-06-10T18:09:07.770Z,6.37
2019-06-10T18:11:37.697Z,5.60
2019-06-10T18:14:07.280Z,5.87
2019-06-10T18:16:37.233Z,6.33
2019-06-10T18:19:06.927Z,5.60
2019-06-10T18:21:36.659Z,5.10
2019-06-10T18:24:08.275Z,5.30
2019-06-10T18:26:38.159Z,6.07
2019-06-10T18:29:09.377Z,5.20
2019-06-10T18:31:39.776Z,5.60
2019-06-10T18:34:10.003Z,5.40
2019-06-10T18:36:39.854Z,6.33
2019-06-10T18:39:09.599Z,6.23
2019-06-10T18:41:40.204Z,7.30
2019-06-10T18:44:19.775Z,6.93
2019-06-10T18:46:43.363Z,5.77
2019-06-10T18:49:13.637Z,6.57
2019-06-10T18:51:43.798Z,6.07
2019-06-10T18:54:13.654Z,6.93
2019-06-10T18:56:43.424Z,6.47
2019-06-10T18:59:17.914Z,6.20
2019-06-10T19:01:45.053Z,7.23
2019-06-10T19:04:14.837Z,6.17
2019-06-10T19:06:45.758Z,6.40
2019-06-10T19:09:15.868Z,6.77
2019-06-10T19:11:45.848Z,6.50
2019-06-10T19:14:15.521Z,6.20
2019-06-10T19:16:45.295Z,6.83
2019-06-10T19:19:14.920Z,6.43
2019-06-10T19:21:53.384Z,6.47
2019-06-10T19:24:16.755Z,6.20
2019-06-10T19:26:46.945Z,5.37
2019-06-10T19:29:29.972Z,6.03
2019-06-10T19:31:48.453Z,6.67
2019-06-10T19:34:18.573Z,6.50
2019-06-10T19:36:48.712Z,5.90
2019-06-10T19:39:18.564Z,6.17
2019-06-10T19:41:48.836Z,5.70
2019-06-10T19:44:18.832Z,6.07
2019-06-10T19:46:48.521Z,5.33
2019-06-10T19:49:18.313Z,5.90
2019-06-10T19:51:48.495Z,5.90
2019-06-10T19:54:18.202Z,5.23
2019-06-10T19:56:47.953Z,5.10
2019-06-10T19:59:17.861Z,5.27
2019-06-10T20:01:48.806Z,4.90
2019-06-10T20:04:18.829Z,4.30
2019-06-10T20:06:50.769Z,5.13
2019-06-10T20:09:22.666Z,5.33
2019-06-10T20:11:51.879Z,5.17
2019-06-10T20:14:21.694Z,5.17
2019-06-10T20:16:52.710Z,5.07
2019-06-10T20:19:22.928Z,5.30
2019-06-10T20:21:53.136Z,4.90
2019-06-10T20:24:22.686Z,4.83
2019-06-10T20:26:52.933Z,4.77
2019-06-10T20:29:22.889Z,5.07
2019-06-10T20:31:52.656Z,5.00
2019-06-10T20:34:25.787Z,4.40
2019-06-10T20:36:55.312Z,4.10
2019-06-10T20:39:25.104Z,4.00
2019-06-10T20:41:55.818Z,4.40
2019-06-10T20:44:25.669Z,4.63
2019-06-10T20:46:55.341Z,4.40
2019-06-10T20:49:24.816Z,4.87
2019-06-10T20:52:06.657Z,4.93
2019-06-10T20:54:25.855Z,4.73
2019-06-10T20:56:55.272Z,4.50
2019-06-10T20:59:25.974Z,4.80
2019-06-10T21:01:56.130Z,4.90
2019-06-10T21:04:25.601Z,5.40
2019-06-10T21:06:57.308Z,5.60
2019-06-10T21:09:28.147Z,5.60
2019-06-10T21:11:57.638Z,5.80
2019-06-10T21:14:27.428Z,5.40
2019-06-10T21:16:57.000Z,5.17
2019-06-10T21:19:26.619Z,5.43
2019-06-10T21:21:56.134Z,5.90
2019-06-10T21:24:25.647Z,5.30
2019-06-10T21:26:55.113Z,5.60
2019-06-10T21:29:24.934Z,5.17
2019-06-10T21:31:55.072Z,4.40
2019-06-10T21:34:24.625Z,4.23
2019-06-10T21:36:54.522Z,3.30
2019-06-10T21:39:24.407Z,3.40
2019-06-10T21:41:54.647Z,3.60
2019-06-10T21:44:24.200Z,3.40
2019-06-10T21:46:53.640Z,3.10
2019-06-10T21:49:23.851Z,2.90
2019-06-10T21:51:56.512Z,2.80
2019-06-10T21:54:24.971Z,2.33
2019-06-10T21:56:55.650Z,2.23
2019-06-10T21:59:25.428Z,2.30
2019-06-10T22:01:54.969Z,2.50
2019-06-10T22:04:24.808Z,2.37
2019-06-10T22:06:55.947Z,2.67
2019-06-10T22:09:25.422Z,3.07
2019-06-10T22:11:55.858Z,2.40
2019-06-10T22:14:25.709Z,2.10
2019-06-10T22:16:56.500Z,2.70
2019-06-10T22:19:26.196Z,2.10
2019-06-10T22:21:56.786Z,2.63
2019-06-10T22:24:26.490Z,2.40
2019-06-10T22:26:56.074Z,2.30
2019-06-10T22:29:25.564Z,2.53
2019-06-10T22:31:56.964Z,2.40
2019-06-10T22:34:26.378Z,2.23
2019-06-10T22:36:57.425Z,2.10
2019-06-10T22:39:26.953Z,2.17
2019-06-10T22:41:57.055Z,2.30
2019-06-10T22:44:26.806Z,2.50
2019-06-10T22:46:57.193Z,2.43
2019-06-10T22:49:26.873Z,1.93
2019-06-10T22:51:58.425Z,2.10
2019-06-10T22:54:27.498Z,1.87
2019-06-10T22:56:58.446Z,1.80
2019-06-10T22:59:27.966Z,2.17
2019-06-10T23:01:58.702Z,2.13
2019-06-10T23:04:28.365Z,1.90
2019-06-10T23:06:58.510Z,1.80
2019-06-10T23:09:29.332Z,1.73
2019-06-10T23:11:59.251Z,1.60
2019-06-10T23:14:28.884Z,1.90
2019-06-10T23:16:59.914Z,1.70
2019-06-10T23:19:29.425Z,1.73
2019-06-10T23:21:59.898Z,1.87
2019-06-10T23:24:32.023Z,1.70
2019-06-10T23:27:03.059Z,1.73
2019-06-10T23:29:32.326Z,1.80
2019-06-10T23:32:06.789Z,1.70
2019-06-10T23:34:33.183Z,1.70
2019-06-10T23:37:02.945Z,1.70
2019-06-10T23:39:33.516Z,2.23
2019-06-10T23:42:04.319Z,1.70
2019-06-10T23:44:33.738Z,2.17
2019-06-10T23:47:04.012Z,2.17
2019-06-10T23:49:33.747Z,1.47
2019-06-10T23:52:04.663Z,2.07
2019-06-10T23:54:34.267Z,1.50
2019-06-10T23:57:05.689Z,2.00
2019-06-10T23:59:34.860Z,1.50
